sensor_id;sensor_type;location;lat;lon;timestamp;pressure;altitude;pressure_sealevel;temperature;humidity
40205;BME280;26963;42.666;23.366;2023-10-31T00:02:09;95159.13;;;15.92;47.02
40205;BME280;26963;42.666;23.366;2023-10-31T00:04:35;95163.41;;;15.93;46.85
40205;BME280;26963;42.666;23.366;2023-10-31T00:07:00;95090.00;;;15.35;47.00
40205;BME280;26963;42.666;23.366;2023-10-31T00:09:26;95118.97;;;15.64;46.92
40205;BME280;26963;42.666;23.366;2023-10-31T00:11:51;95103.78;;;15.51;47.16
40205;BME280;26963;42.666;23.366;2023-10-31T00:14:17;95154.34;;;15.80;46.43
40205;BME280;26963;42.666;23.366;2023-10-31T00:16:42;95131.19;;;15.61;46.70
40205;BME280;26963;42.666;23.366;2023-10-31T00:19:08;95090.00;;;15.26;46.73
40205;BME280;26963;42.666;23.366;2023-10-31T00:21:34;95126.13;;;15.51;46.97
40205;BME280;26963;42.666;23.366;2023-10-31T00:24:00;95037.84;;;14.87;47.08
40205;BME280;26963;42.666;23.366;2023-10-31T00:26:25;95144.53;;;15.58;46.64
40205;BME280;26963;42.666;23.366;2023-10-31T00:28:51;95145.19;;;15.55;46.96
40205;BME280;26963;42.666;23.366;2023-10-31T00:31:17;95138.53;;;15.52;47.29
40205;BME280;26963;42.666;23.366;2023-10-31T00:33:42;95153.88;;;15.52;46.87
40205;BME280;26963;42.666;23.366;2023-10-31T00:36:08;95149.16;;;15.48;47.10
40205;BME280;26963;42.666;23.366;2023-10-31T00:38:34;95126.78;;;15.39;46.73
40205;BME280;26963;42.666;23.366;2023-10-31T00:41:02;95145.00;;;15.42;47.16
40205;BME280;26963;42.666;23.366;2023-10-31T00:43:28;95136.59;;;15.35;47.20
40205;BME280;26963;42.666;23.366;2023-10-31T00:45:53;95143.13;;;15.34;47.05
40205;BME280;26963;42.666;23.366;2023-10-31T00:48:19;95131.38;;;15.30;47.19
40205;BME280;26963;42.666;23.366;2023-10-31T00:50:45;95126.47;;;15.23;47.79
40205;BME280;26963;42.666;23.366;2023-10-31T00:53:11;95141.84;;;15.23;47.76
40205;BME280;26963;42.666;23.366;2023-10-31T00:55:36;95075.09;;;14.76;47.47
40205;BME280;26963;42.666;23.366;2023-10-31T00:58:02;95094.41;;;14.87;47.24
40205;BME280;26963;42.666;23.366;2023-10-31T01:00:28;95074.94;;;14.72;48.19
40205;BME280;26963;42.666;23.366;2023-10-31T01:02:54;95087.28;;;14.73;48.10
40205;BME280;26963;42.666;23.366;2023-10-31T01:05:19;95096.63;;;14.84;47.72
40205;BME280;26963;42.666;23.366;2023-10-31T01:07:45;95102.66;;;14.90;47.78
40205;BME280;26963;42.666;23.366;2023-10-31T01:10:10;95100.47;;;14.92;48.05
40205;BME280;26963;42.666;23.366;2023-10-31T01:12:36;95103.31;;;14.87;47.42
40205;BME280;26963;42.666;23.366;2023-10-31T01:15:02;95121.38;;;14.95;47.46
40205;BME280;26963;42.666;23.366;2023-10-31T01:17:28;95122.16;;;14.96;47.72
40205;BME280;26963;42.666;23.366;2023-10-31T01:19:54;95008.91;;;14.26;47.84
40205;BME280;26963;42.666;23.366;2023-10-31T01:22:20;95079.97;;;14.65;48.08
40205;BME280;26963;42.666;23.366;2023-10-31T01:24:45;95109.16;;;14.80;47.58
40205;BME280;26963;42.666;23.366;2023-10-31T01:27:11;95099.63;;;14.74;47.90
40205;BME280;26963;42.666;23.366;2023-10-31T01:29:36;95052.38;;;14.50;47.55
40205;BME280;26963;42.666;23.366;2023-10-31T01:32:02;94998.75;;;14.05;47.36
40205;BME280;26963;42.666;23.366;2023-10-31T01:34:28;95060.44;;;14.42;48.07
40205;BME280;26963;42.666;23.366;2023-10-31T01:36:53;95111.03;;;14.71;48.34
40205;BME280;26963;42.666;23.366;2023-10-31T01:39:19;95091.91;;;14.41;48.71
40205;BME280;26963;42.666;23.366;2023-10-31T01:41:45;95087.50;;;14.45;49.17
40205;BME280;26963;42.666;23.366;2023-10-31T01:44:10;95096.06;;;14.47;48.89
40205;BME280;26963;42.666;23.366;2023-10-31T01:46:36;95102.53;;;14.46;49.37
40205;BME280;26963;42.666;23.366;2023-10-31T01:49:02;95056.41;;;14.22;49.51
40205;BME280;26963;42.666;23.366;2023-10-31T01:51:29;95094.16;;;14.39;49.29
40205;BME280;26963;42.666;23.366;2023-10-31T01:53:55;95060.66;;;14.14;49.15
40205;BME280;26963;42.666;23.366;2023-10-31T01:56:22;95101.44;;;14.47;49.17
40205;BME280;26963;42.666;23.366;2023-10-31T01:58:48;95096.97;;;14.34;49.81
40205;BME280;26963;42.666;23.366;2023-10-31T02:01:14;95089.31;;;14.18;50.33
40205;BME280;26963;42.666;23.366;2023-10-31T02:03:40;95087.25;;;14.15;50.58
40205;BME280;26963;42.666;23.366;2023-10-31T02:06:05;95094.44;;;14.29;50.28
40205;BME280;26963;42.666;23.366;2023-10-31T02:08:31;95097.59;;;14.31;50.31
40205;BME280;26963;42.666;23.366;2023-10-31T02:10:57;95076.00;;;14.13;50.80
40205;BME280;26963;42.666;23.366;2023-10-31T02:13:23;95088.06;;;14.25;50.75
40205;BME280;26963;42.666;23.366;2023-10-31T02:15:48;95085.88;;;14.27;50.48
40205;BME280;26963;42.666;23.366;2023-10-31T02:18:15;95077.97;;;14.30;50.37
40205;BME280;26963;42.666;23.366;2023-10-31T02:20:41;95088.06;;;14.25;50.50
40205;BME280;26963;42.666;23.366;2023-10-31T02:23:07;95051.06;;;13.90;50.98
40205;BME280;26963;42.666;23.366;2023-10-31T02:25:32;95050.59;;;13.97;51.05
40205;BME280;26963;42.666;23.366;2023-10-31T02:27:58;95072.69;;;14.16;50.62
40205;BME280;26963;42.666;23.366;2023-10-31T02:30:24;95079.53;;;14.23;50.50
40205;BME280;26963;42.666;23.366;2023-10-31T02:32:50;95020.56;;;13.95;50.24
40205;BME280;26963;42.666;23.366;2023-10-31T02:35:17;95055.16;;;14.28;49.89
40205;BME280;26963;42.666;23.366;2023-10-31T02:37:46;95066.09;;;14.40;49.44
40205;BME280;26963;42.666;23.366;2023-10-31T02:40:12;95018.03;;;14.07;49.50
40205;BME280;26963;42.666;23.366;2023-10-31T02:42:38;95051.22;;;14.34;49.22
40205;BME280;26963;42.666;23.366;2023-10-31T02:45:04;95058.03;;;14.40;49.46
40205;BME280;26963;42.666;23.366;2023-10-31T02:47:32;95068.03;;;14.48;49.04
40205;BME280;26963;42.666;23.366;2023-10-31T02:49:57;95077.22;;;14.56;48.91
40205;BME280;26963;42.666;23.366;2023-10-31T02:52:23;95083.88;;;14.59;49.18
40205;BME280;26963;42.666;23.366;2023-10-31T02:54:48;95022.69;;;14.24;49.12
40205;BME280;26963;42.666;23.366;2023-10-31T02:57:15;95072.00;;;14.60;49.01
40205;BME280;26963;42.666;23.366;2023-10-31T02:59:40;95054.56;;;14.48;49.29
40205;BME280;26963;42.666;23.366;2023-10-31T03:02:06;95023.03;;;14.23;49.07
40205;BME280;26963;42.666;23.366;2023-10-31T03:04:31;95075.47;;;14.51;49.25
40205;BME280;26963;42.666;23.366;2023-10-31T03:06:57;95057.06;;;14.36;49.19
40205;BME280;26963;42.666;23.366;2023-10-31T03:09:22;95071.50;;;14.49;49.27
40205;BME280;26963;42.666;23.366;2023-10-31T03:11:48;94973.69;;;13.78;49.55
40205;BME280;26963;42.666;23.366;2023-10-31T03:14:13;95080.06;;;14.42;49.74
40205;BME280;26963;42.666;23.366;2023-10-31T03:16:39;95072.91;;;14.38;49.44
40205;BME280;26963;42.666;23.366;2023-10-31T03:19:05;95061.00;;;14.30;49.61
40205;BME280;26963;42.666;23.366;2023-10-31T03:21:31;95074.19;;;14.40;49.67
40205;BME280;26963;42.666;23.366;2023-10-31T03:23:57;94901.00;;;13.20;49.76
40205;BME280;26963;42.666;23.366;2023-10-31T03:26:23;95054.94;;;14.07;50.61
40205;BME280;26963;42.666;23.366;2023-10-31T03:28:48;95062.81;;;14.03;50.68
40205;BME280;26963;42.666;23.366;2023-10-31T03:31:14;95047.59;;;13.98;50.60
40205;BME280;26963;42.666;23.366;2023-10-31T03:33:41;95060.72;;;13.91;51.07
40205;BME280;26963;42.666;23.366;2023-10-31T03:36:07;95048.53;;;13.85;51.58
40205;BME280;26963;42.666;23.366;2023-10-31T03:38:34;95048.97;;;13.78;51.83
40205;BME280;26963;42.666;23.366;2023-10-31T03:41:03;94965.34;;;13.26;52.08
40205;BME280;26963;42.666;23.366;2023-10-31T03:43:28;95044.78;;;13.63;52.64
40205;BME280;26963;42.666;23.366;2023-10-31T03:45:54;95005.03;;;13.29;52.68
40205;BME280;26963;42.666;23.366;2023-10-31T03:48:20;95047.81;;;13.39;53.59
40205;BME280;26963;42.666;23.366;2023-10-31T03:50:46;95021.66;;;13.08;53.99
40205;BME280;26963;42.666;23.366;2023-10-31T03:53:12;94999.81;;;12.78;54.58
40205;BME280;26963;42.666;23.366;2023-10-31T03:55:38;94989.28;;;12.68;54.64
40205;BME280;26963;42.666;23.366;2023-10-31T03:58:03;95028.00;;;12.89;54.84
40205;BME280;26963;42.666;23.366;2023-10-31T04:00:32;94990.78;;;12.60;54.68
40205;BME280;26963;42.666;23.366;2023-10-31T04:02:57;95042.78;;;13.01;54.66
40205;BME280;26963;42.666;23.366;2023-10-31T04:05:23;95057.44;;;13.17;54.45
40205;BME280;26963;42.666;23.366;2023-10-31T04:07:49;95042.09;;;13.18;54.53
40205;BME280;26963;42.666;23.366;2023-10-31T04:10:15;95050.94;;;13.18;54.66
40205;BME280;26963;42.666;23.366;2023-10-31T04:12:41;95050.53;;;13.25;54.13
40205;BME280;26963;42.666;23.366;2023-10-31T04:15:08;95056.34;;;13.41;53.95
40205;BME280;26963;42.666;23.366;2023-10-31T04:17:34;95049.75;;;13.47;53.53
40205;BME280;26963;42.666;23.366;2023-10-31T04:20:01;95032.88;;;13.33;53.30
40205;BME280;26963;42.666;23.366;2023-10-31T04:22:27;95000.41;;;13.20;52.82
40205;BME280;26963;42.666;23.366;2023-10-31T04:24:53;95042.88;;;13.64;52.17
40205;BME280;26963;42.666;23.366;2023-10-31T04:27:18;94996.84;;;13.34;52.25
40205;BME280;26963;42.666;23.366;2023-10-31T04:29:44;95035.56;;;13.56;52.98
40205;BME280;26963;42.666;23.366;2023-10-31T04:32:10;95038.81;;;13.44;53.37
40205;BME280;26963;42.666;23.366;2023-10-31T04:34:36;94960.50;;;13.05;53.39
40205;BME280;26963;42.666;23.366;2023-10-31T04:37:01;95030.88;;;13.38;53.31
40205;BME280;26963;42.666;23.366;2023-10-31T04:39:27;95028.50;;;13.37;53.52
40205;BME280;26963;42.666;23.366;2023-10-31T04:41:53;95022.13;;;13.33;53.65
40205;BME280;26963;42.666;23.366;2023-10-31T04:44:18;95024.94;;;13.28;53.65
40205;BME280;26963;42.666;23.366;2023-10-31T04:46:44;95011.97;;;12.84;54.60
40205;BME280;26963;42.666;23.366;2023-10-31T04:49:09;94997.25;;;12.73;54.85
40205;BME280;26963;42.666;23.366;2023-10-31T04:51:36;95043.75;;;13.05;54.57
40205;BME280;26963;42.666;23.366;2023-10-31T04:54:02;95027.13;;;13.03;54.19
40205;BME280;26963;42.666;23.366;2023-10-31T04:56:28;95056.19;;;13.24;53.91
40205;BME280;26963;42.666;23.366;2023-10-31T04:58:53;95015.94;;;13.01;53.56
40205;BME280;26963;42.666;23.366;2023-10-31T05:01:19;95044.22;;;13.30;53.44
40205;BME280;26963;42.666;23.366;2023-10-31T05:03:45;95043.25;;;13.26;53.39
40205;BME280;26963;42.666;23.366;2023-10-31T05:06:10;95045.50;;;13.32;53.37
40205;BME280;26963;42.666;23.366;2023-10-31T05:08:36;95048.50;;;13.31;53.07
40205;BME280;26963;42.666;23.366;2023-10-31T05:11:02;95057.94;;;13.42;52.65
40205;BME280;26963;42.666;23.366;2023-10-31T05:13:27;95011.88;;;13.12;52.71
40205;BME280;26963;42.666;23.366;2023-10-31T05:15:53;95047.56;;;13.49;52.40
40205;BME280;26963;42.666;23.366;2023-10-31T05:18:19;95056.88;;;13.52;52.17
40205;BME280;26963;42.666;23.366;2023-10-31T05:20:45;94999.91;;;13.18;51.94
40205;BME280;26963;42.666;23.366;2023-10-31T05:23:11;95018.94;;;13.31;52.13
40205;BME280;26963;42.666;23.366;2023-10-31T05:25:36;95037.06;;;13.39;52.25
40205;BME280;26963;42.666;23.366;2023-10-31T05:28:03;95003.81;;;13.12;52.90
40205;BME280;26963;42.666;23.366;2023-10-31T05:30:31;95038.63;;;13.40;52.38
40205;BME280;26963;42.666;23.366;2023-10-31T05:32:57;95059.91;;;13.50;52.41
40205;BME280;26963;42.666;23.366;2023-10-31T05:35:23;95051.34;;;13.48;52.52
40205;BME280;26963;42.666;23.366;2023-10-31T05:37:48;95059.41;;;13.48;51.78
40205;BME280;26963;42.666;23.366;2023-10-31T05:40:15;95073.19;;;13.56;51.92
40205;BME280;26963;42.666;23.366;2023-10-31T05:42:41;95038.25;;;13.33;51.84
40205;BME280;26963;42.666;23.366;2023-10-31T05:45:08;95050.84;;;13.46;52.28
40205;BME280;26963;42.666;23.366;2023-10-31T05:47:33;95078.91;;;13.63;52.44
40205;BME280;26963;42.666;23.366;2023-10-31T05:49:59;95035.84;;;13.45;52.26
40205;BME280;26963;42.666;23.366;2023-10-31T05:52:28;95044.72;;;13.54;52.59
40205;BME280;26963;42.666;23.366;2023-10-31T05:54:55;95001.03;;;13.17;52.62
40205;BME280;26963;42.666;23.366;2023-10-31T05:57:21;95012.59;;;13.27;52.60
40205;BME280;26963;42.666;23.366;2023-10-31T05:59:46;95036.28;;;13.25;52.79
40205;BME280;26963;42.666;23.366;2023-10-31T06:02:15;95086.94;;;13.54;52.83
40205;BME280;26963;42.666;23.366;2023-10-31T06:04:41;95078.09;;;13.53;53.15
40205;BME280;26963;42.666;23.366;2023-10-31T06:07:07;95075.03;;;13.46;53.29
40205;BME280;26963;42.666;23.366;2023-10-31T06:09:33;95073.81;;;13.52;52.85
40205;BME280;26963;42.666;23.366;2023-10-31T06:11:59;95027.75;;;13.23;52.84
40205;BME280;26963;42.666;23.366;2023-10-31T06:14:25;95093.69;;;13.74;53.10
40205;BME280;26963;42.666;23.366;2023-10-31T06:16:51;95099.56;;;13.76;53.10
40205;BME280;26963;42.666;23.366;2023-10-31T06:19:17;95094.97;;;13.77;53.01
40205;BME280;26963;42.666;23.366;2023-10-31T06:21:45;95091.22;;;13.86;53.10
40205;BME280;26963;42.666;23.366;2023-10-31T06:24:11;95024.28;;;13.45;53.03
40205;BME280;26963;42.666;23.366;2023-10-31T06:26:37;95084.03;;;14.05;52.84
40205;BME280;26963;42.666;23.366;2023-10-31T06:29:02;95080.63;;;14.22;52.33
40205;BME280;26963;42.666;23.366;2023-10-31T06:31:29;95094.97;;;14.57;51.59
40205;BME280;26963;42.666;23.366;2023-10-31T06:33:54;95073.94;;;14.68;51.24
40205;BME280;26963;42.666;23.366;2023-10-31T06:36:20;95093.63;;;15.12;50.17
40205;BME280;26963;42.666;23.366;2023-10-31T06:38:45;95097.91;;;15.48;49.37
40205;BME280;26963;42.666;23.366;2023-10-31T06:41:11;95103.09;;;15.80;48.38
40205;BME280;26963;42.666;23.366;2023-10-31T06:43:37;95096.34;;;16.12;47.85
40205;BME280;26963;42.666;23.366;2023-10-31T06:46:02;95095.56;;;16.51;46.82
40205;BME280;26963;42.666;23.366;2023-10-31T06:48:30;95092.47;;;16.91;46.36
40205;BME280;26963;42.666;23.366;2023-10-31T06:50:55;95077.19;;;17.16;44.92
40205;BME280;26963;42.666;23.366;2023-10-31T06:53:21;95089.03;;;17.45;44.11
40205;BME280;26963;42.666;23.366;2023-10-31T06:55:47;95058.56;;;17.57;43.82
40205;BME280;26963;42.666;23.366;2023-10-31T06:58:12;95030.22;;;17.54;43.26
40205;BME280;26963;42.666;23.366;2023-10-31T07:00:38;95084.38;;;18.13;42.75
40205;BME280;26963;42.666;23.366;2023-10-31T07:03:04;95057.31;;;18.13;42.27
40205;BME280;26963;42.666;23.366;2023-10-31T07:05:35;95081.25;;;18.35;41.82
40205;BME280;26963;42.666;23.366;2023-10-31T07:08:01;95079.00;;;18.62;41.72
40205;BME280;26963;42.666;23.366;2023-10-31T07:10:28;95071.06;;;18.82;41.45
40205;BME280;26963;42.666;23.366;2023-10-31T07:12:54;95076.00;;;19.17;40.86
40205;BME280;26963;42.666;23.366;2023-10-31T07:15:19;95062.28;;;19.54;40.10
40205;BME280;26963;42.666;23.366;2023-10-31T07:17:47;95076.84;;;19.90;39.40
40205;BME280;26963;42.666;23.366;2023-10-31T07:20:13;95047.78;;;20.07;38.86
40205;BME280;26963;42.666;23.366;2023-10-31T07:22:39;95049.16;;;20.32;38.32
40205;BME280;26963;42.666;23.366;2023-10-31T07:25:06;95056.84;;;20.62;37.63
40205;BME280;26963;42.666;23.366;2023-10-31T07:27:31;95058.31;;;20.76;37.52
40205;BME280;26963;42.666;23.366;2023-10-31T07:29:57;95006.81;;;20.47;36.69
40205;BME280;26963;42.666;23.366;2023-10-31T07:32:23;95043.94;;;20.75;37.18
40205;BME280;26963;42.666;23.366;2023-10-31T07:34:48;95057.69;;;20.82;37.05
40205;BME280;26963;42.666;23.366;2023-10-31T07:37:14;94994.06;;;20.51;36.98
40205;BME280;26963;42.666;23.366;2023-10-31T07:39:39;95059.59;;;21.17;36.92
40205;BME280;26963;42.666;23.366;2023-10-31T07:42:05;95023.81;;;21.15;36.77
40205;BME280;26963;42.666;23.366;2023-10-31T07:44:31;95008.97;;;21.32;36.32
40205;BME280;26963;42.666;23.366;2023-10-31T07:46:57;94991.47;;;21.53;35.64
40205;BME280;26963;42.666;23.366;2023-10-31T07:49:22;94998.50;;;21.74;34.98
40205;BME280;26963;42.666;23.366;2023-10-31T07:51:48;95034.06;;;22.08;35.05
40205;BME280;26963;42.666;23.366;2023-10-31T07:54:14;95036.78;;;22.08;34.72
40205;BME280;26963;42.666;23.366;2023-10-31T07:56:41;95026.69;;;22.08;34.85
40205;BME280;26963;42.666;23.366;2023-10-31T07:59:06;95019.47;;;22.20;35.13
40205;BME280;26963;42.666;23.366;2023-10-31T08:01:33;95021.66;;;22.34;34.67
40205;BME280;26963;42.666;23.366;2023-10-31T08:03:59;95015.47;;;22.37;34.85
40205;BME280;26963;42.666;23.366;2023-10-31T08:06:25;95014.13;;;22.50;34.79
40205;BME280;26963;42.666;23.366;2023-10-31T08:08:50;94990.00;;;22.52;34.84
40205;BME280;26963;42.666;23.366;2023-10-31T08:11:16;94985.91;;;22.66;33.85
40205;BME280;26963;42.666;23.366;2023-10-31T08:13:44;95013.97;;;22.96;34.00
40205;BME280;26963;42.666;23.366;2023-10-31T08:16:10;95017.56;;;23.01;33.54
40205;BME280;26963;42.666;23.366;2023-10-31T08:18:36;94998.22;;;23.13;33.58
40205;BME280;26963;42.666;23.366;2023-10-31T08:21:03;95006.25;;;23.33;33.18
40205;BME280;26963;42.666;23.366;2023-10-31T08:23:29;94984.41;;;23.33;32.91
40205;BME280;26963;42.666;23.366;2023-10-31T08:25:55;94937.66;;;23.04;32.90
40205;BME280;26963;42.666;23.366;2023-10-31T08:28:21;94960.69;;;23.06;32.76
40205;BME280;26963;42.666;23.366;2023-10-31T08:30:46;94959.50;;;23.04;32.93
40205;BME280;26963;42.666;23.366;2023-10-31T08:33:13;94961.31;;;22.92;33.24
40205;BME280;26963;42.666;23.366;2023-10-31T08:35:39;94957.88;;;22.69;33.39
40205;BME280;26963;42.666;23.366;2023-10-31T08:38:05;94955.91;;;22.66;33.83
40205;BME280;26963;42.666;23.366;2023-10-31T08:40:30;94910.84;;;22.45;33.84
40205;BME280;26963;42.666;23.366;2023-10-31T08:42:56;94908.13;;;22.45;33.84
40205;BME280;26963;42.666;23.366;2023-10-31T08:45:22;94953.06;;;22.85;33.64
40205;BME280;26963;42.666;23.366;2023-10-31T08:47:48;94971.16;;;23.01;33.75
40205;BME280;26963;42.666;23.366;2023-10-31T08:50:13;94954.00;;;23.00;33.32
40205;BME280;26963;42.666;23.366;2023-10-31T08:52:39;94891.25;;;22.66;33.34
40205;BME280;26963;42.666;23.366;2023-10-31T08:55:05;94950.22;;;23.08;33.47
40205;BME280;26963;42.666;23.366;2023-10-31T08:57:31;94921.22;;;22.96;33.17
40205;BME280;26963;42.666;23.366;2023-10-31T08:59:59;94913.97;;;22.77;33.56
40205;BME280;26963;42.666;23.366;2023-10-31T09:02:24;94906.41;;;22.97;33.62
40205;BME280;26963;42.666;23.366;2023-10-31T09:04:50;94874.19;;;22.73;33.53
40205;BME280;26963;42.666;23.366;2023-10-31T09:07:16;94920.75;;;23.21;33.31
40205;BME280;26963;42.666;23.366;2023-10-31T09:09:41;94868.97;;;22.94;32.80
40205;BME280;26963;42.666;23.366;2023-10-31T09:12:07;94901.97;;;23.16;33.09
40205;BME280;26963;42.666;23.366;2023-10-31T09:14:33;94886.84;;;22.88;33.65
40205;BME280;26963;42.666;23.366;2023-10-31T09:16:59;94887.06;;;23.10;33.26
40205;BME280;26963;42.666;23.366;2023-10-31T09:19:24;94888.63;;;23.11;32.84
40205;BME280;26963;42.666;23.366;2023-10-31T09:21:50;94900.53;;;23.26;32.70
40205;BME280;26963;42.666;23.366;2023-10-31T09:24:16;94820.47;;;22.77;33.47
40205;BME280;26963;42.666;23.366;2023-10-31T09:26:42;94893.22;;;23.41;32.76
40205;BME280;26963;42.666;23.366;2023-10-31T09:29:10;94876.00;;;23.29;32.86
40205;BME280;26963;42.666;23.366;2023-10-31T09:31:36;94880.00;;;23.43;32.53
40205;BME280;26963;42.666;23.366;2023-10-31T09:34:01;94875.88;;;23.64;32.49
40205;BME280;26963;42.666;23.366;2023-10-31T09:36:31;94819.16;;;23.42;32.41
40205;BME280;26963;42.666;23.366;2023-10-31T09:38:57;94804.34;;;23.47;32.66
40205;BME280;26963;42.666;23.366;2023-10-31T09:41:23;94819.66;;;23.55;32.63
40205;BME280;26963;42.666;23.366;2023-10-31T09:43:48;94857.63;;;23.75;31.96
40205;BME280;26963;42.666;23.366;2023-10-31T09:46:16;94825.34;;;23.36;32.71
40205;BME280;26963;42.666;23.366;2023-10-31T09:48:43;94805.63;;;23.12;32.72
40205;BME280;26963;42.666;23.366;2023-10-31T09:51:09;94831.47;;;23.25;33.13
40205;BME280;26963;42.666;23.366;2023-10-31T09:53:38;94809.19;;;23.16;32.97
40205;BME280;26963;42.666;23.366;2023-10-31T09:56:07;94826.56;;;23.42;32.95
40205;BME280;26963;42.666;23.366;2023-10-31T09:58:33;94799.25;;;23.42;32.91
40205;BME280;26963;42.666;23.366;2023-10-31T10:00:59;94796.69;;;23.64;32.67
40205;BME280;26963;42.666;23.366;2023-10-31T10:03:26;94784.59;;;23.65;32.13
40205;BME280;26963;42.666;23.366;2023-10-31T10:05:52;94812.06;;;23.90;31.62
40205;BME280;26963;42.666;23.366;2023-10-31T10:08:19;94774.44;;;23.61;32.00
40205;BME280;26963;42.666;23.366;2023-10-31T10:10:44;94792.91;;;23.79;32.18
40205;BME280;26963;42.666;23.366;2023-10-31T10:13:10;94791.31;;;23.78;31.73
40205;BME280;26963;42.666;23.366;2023-10-31T10:15:48;94789.09;;;23.94;31.60
40205;BME280;26963;42.666;23.366;2023-10-31T10:18:33;94781.69;;;23.99;31.28
40205;BME280;26963;42.666;23.366;2023-10-31T10:21:02;94770.69;;;23.84;30.85
40205;BME280;26963;42.666;23.366;2023-10-31T10:23:29;94722.88;;;23.53;31.28
40205;BME280;26963;42.666;23.366;2023-10-31T10:25:56;94776.16;;;23.84;31.02
40205;BME280;26963;42.666;23.366;2023-10-31T10:28:22;94722.81;;;23.42;30.87
40205;BME280;26963;42.666;23.366;2023-10-31T10:30:50;94760.38;;;23.59;31.43
40205;BME280;26963;42.666;23.366;2023-10-31T10:33:17;94749.41;;;23.52;31.04
40205;BME280;26963;42.666;23.366;2023-10-31T10:35:43;94702.53;;;23.43;30.88
40205;BME280;26963;42.666;23.366;2023-10-31T10:38:14;94762.09;;;23.86;31.06
40205;BME280;26963;42.666;23.366;2023-10-31T10:40:41;94709.66;;;23.58;31.27
40205;BME280;26963;42.666;23.366;2023-10-31T10:43:13;94752.00;;;23.93;31.23
40205;BME280;26963;42.666;23.366;2023-10-31T10:45:42;94747.34;;;23.98;30.99
40205;BME280;26963;42.666;23.366;2023-10-31T10:48:11;94727.00;;;23.88;30.90
40205;BME280;26963;42.666;23.366;2023-10-31T10:50:42;94675.31;;;23.54;30.57
40205;BME280;26963;42.666;23.366;2023-10-31T10:53:23;94723.06;;;23.85;30.96
40205;BME280;26963;42.666;23.366;2023-10-31T10:56:00;94667.50;;;23.49;30.56
40205;BME280;26963;42.666;23.366;2023-10-31T10:58:34;94686.28;;;23.65;30.43
40205;BME280;26963;42.666;23.366;2023-10-31T11:01:03;94694.88;;;23.67;30.55
40205;BME280;26963;42.666;23.366;2023-10-31T11:03:30;94691.72;;;23.57;30.54
40205;BME280;26963;42.666;23.366;2023-10-31T11:05:56;94621.97;;;23.08;30.59
40205;BME280;26963;42.666;23.366;2023-10-31T11:08:23;94654.88;;;23.26;31.02
40205;BME280;26963;42.666;23.366;2023-10-31T11:10:50;94643.44;;;23.09;31.33
40205;BME280;26963;42.666;23.366;2023-10-31T11:13:16;94693.22;;;23.48;31.49
40205;BME280;26963;42.666;23.366;2023-10-31T11:15:43;94673.63;;;23.31;31.34
40205;BME280;26963;42.666;23.366;2023-10-31T11:18:10;94671.28;;;23.29;31.37
40205;BME280;26963;42.666;23.366;2023-10-31T11:20:37;94637.16;;;23.02;31.21
40205;BME280;26963;42.666;23.366;2023-10-31T11:23:06;94659.50;;;23.18;31.15
40205;BME280;26963;42.666;23.366;2023-10-31T11:25:32;94664.59;;;23.23;31.32
40205;BME280;26963;42.666;23.366;2023-10-31T11:28:16;94669.25;;;23.19;31.17
40205;BME280;26963;42.666;23.366;2023-10-31T11:30:43;94650.78;;;23.02;31.27
40205;BME280;26963;42.666;23.366;2023-10-31T11:33:15;94666.41;;;23.05;31.61
40205;BME280;26963;42.666;23.366;2023-10-31T11:35:42;94648.06;;;23.02;31.63
40205;BME280;26963;42.666;23.366;2023-10-31T11:38:10;94648.78;;;22.95;31.93
40205;BME280;26963;42.666;23.366;2023-10-31T11:41:00;94651.94;;;23.01;31.73
40205;BME280;26963;42.666;23.366;2023-10-31T11:43:50;94645.28;;;22.94;31.48
40205;BME280;26963;42.666;23.366;2023-10-31T11:46:23;94643.69;;;22.90;31.56
40205;BME280;26963;42.666;23.366;2023-10-31T11:48:53;94630.00;;;22.86;31.90
40205;BME280;26963;42.666;23.366;2023-10-31T11:51:20;94618.72;;;22.84;31.84
40205;BME280;26963;42.666;23.366;2023-10-31T11:53:45;94619.50;;;22.88;31.94
40205;BME280;26963;42.666;23.366;2023-10-31T11:56:11;94628.16;;;22.97;32.00
40205;BME280;26963;42.666;23.366;2023-10-31T11:58:37;94615.66;;;22.93;31.94
40205;BME280;26963;42.666;23.366;2023-10-31T12:01:08;94605.50;;;22.90;31.90
40205;BME280;26963;42.666;23.366;2023-10-31T12:03:42;94625.06;;;22.99;31.62
40205;BME280;26963;42.666;23.366;2023-10-31T12:06:09;94614.50;;;22.97;31.71
40205;BME280;26963;42.666;23.366;2023-10-31T12:08:39;94590.63;;;22.84;31.81
40205;BME280;26963;42.666;23.366;2023-10-31T12:11:12;94607.47;;;22.96;31.94
40205;BME280;26963;42.666;23.366;2023-10-31T12:13:40;94560.16;;;22.71;31.97
40205;BME280;26963;42.666;23.366;2023-10-31T12:16:07;94595.41;;;22.97;31.70
40205;BME280;26963;42.666;23.366;2023-10-31T12:18:34;94593.84;;;22.96;31.76
40205;BME280;26963;42.666;23.366;2023-10-31T12:21:00;94569.63;;;22.84;32.08
40205;BME280;26963;42.666;23.366;2023-10-31T12:23:26;94573.19;;;22.95;32.23
40205;BME280;26963;42.666;23.366;2023-10-31T12:25:53;94580.66;;;23.06;32.04
40205;BME280;26963;42.666;23.366;2023-10-31T12:28:20;94592.38;;;23.10;31.95
40205;BME280;26963;42.666;23.366;2023-10-31T12:30:47;94598.75;;;23.28;31.90
40205;BME280;26963;42.666;23.366;2023-10-31T12:33:13;94572.19;;;23.25;31.74
40205;BME280;26963;42.666;23.366;2023-10-31T12:35:39;94578.50;;;23.37;31.41
40205;BME280;26963;42.666;23.366;2023-10-31T12:38:06;94574.59;;;23.38;31.47
40205;BME280;26963;42.666;23.366;2023-10-31T12:40:33;94537.91;;;23.28;31.45
40205;BME280;26963;42.666;23.366;2023-10-31T12:42:59;94542.66;;;23.45;31.50
40205;BME280;26963;42.666;23.366;2023-10-31T12:45:26;94540.31;;;23.44;31.45
40205;BME280;26963;42.666;23.366;2023-10-31T12:48:12;94532.53;;;23.46;31.28